Time;durP1;ratioP1;P1;durP2;ratioP2;P2;SDS_P1;SDS_P2;PMS_P1;PMS_P2;Temp;Humidity;BMP_temperature;BMP_pressure;BME280_temperature;BME280_humidity;BME280_pressure;Samples;Min_cycle;Max_cycle;Signal;HPM_P1;HPM_P2
2021/11/12 00:03:18;;;;;;;1.53;1.47;;;2.80;99.90;;;;;;5004419;28;20487;-87
2021/11/12 00:14:04;;;;;;;0.57;0.57;;;2.60;99.90;;;;;;4997507;28;20448;-87
2021/11/12 00:16:31;;;;;;;0.40;0.40;;;2.60;99.90;;;;;;4997842;28;20487;-87
2021/11/12 00:18:58;;;;;;;1.77;1.13;;;2.60;99.90;;;;;;4997649;28;20444;-87
2021/11/12 00:21:26;;;;;;;0.63;0.63;;;2.70;99.90;;;;;;4997239;28;20480;-87
2021/11/12 00:23:53;;;;;;;0.60;0.43;;;2.60;99.90;;;;;;4997332;28;20484;-87
2021/11/12 00:26:21;;;;;;;0.30;0.30;;;2.70;99.90;;;;;;4997419;28;20484;-87
2021/11/12 00:28:52;;;;;;;1.60;1.10;;;2.60;99.90;;;;;;4997399;28;20456;-87
2021/11/12 00:31:26;;;;;;;0.50;0.50;;;2.60;99.90;;;;;;4997091;28;21004;-88
2021/11/12 00:37:16;;;;;;;1.03;1.03;;;2.50;99.90;;;;;;5091432;28;20585;-87
2021/11/12 00:39:46;;;;;;;0.40;0.40;;;2.60;99.90;;;;;;5091549;28;20926;-87
2021/11/12 00:42:15;;;;;;;0.33;0.33;;;2.60;99.90;;;;;;5091611;28;20442;-87
2021/11/12 00:44:45;;;;;;;1.50;1.10;;;2.70;99.90;;;;;;5091564;28;20466;-87
2021/11/12 00:47:21;;;;;;;0.77;0.53;;;2.60;99.90;;;;;;5091993;28;20433;-87
2021/11/12 00:50:03;;;;;;;0.30;0.30;;;2.60;99.90;;;;;;5091846;28;20458;-87
2021/11/12 00:52:43;;;;;;;3.07;1.23;;;2.60;99.90;;;;;;5091527;28;20430;-87
2021/11/12 00:55:10;;;;;;;0.30;0.20;;;2.60;99.90;;;;;;5091682;28;20474;-87
2021/11/12 00:57:37;;;;;;;0.80;0.60;;;2.60;99.90;;;;;;5091466;28;20454;-87
2021/11/12 01:00:06;;;;;;;1.40;0.80;;;2.60;99.90;;;;;;5091453;28;20455;-87
2021/11/12 01:02:34;;;;;;;0.53;0.50;;;2.60;99.90;;;;;;5091247;28;20440;-87
2021/11/12 01:05:01;;;;;;;0.40;0.40;;;2.60;99.90;;;;;;5091098;28;20890;-87
2021/11/12 01:07:29;;;;;;;0.50;0.50;;;2.60;99.90;;;;;;5090828;28;20463;-87
2021/11/12 01:09:58;;;;;;;0.60;0.60;;;2.60;99.90;;;;;;5091185;28;20539;-87
2021/11/12 01:12:25;;;;;;;0.43;0.43;;;2.60;99.90;;;;;;5091097;28;20444;-87
2021/11/12 01:14:52;;;;;;;1.63;1.53;;;2.60;99.90;;;;;;5090713;28;20448;-87
2021/11/12 01:17:19;;;;;;;0.50;0.50;;;2.60;99.90;;;;;;5090776;28;20932;-87
2021/11/12 01:19:47;;;;;;;2.93;0.40;;;2.50;99.90;;;;;;5090889;28;20452;-87
2021/11/12 01:22:14;;;;;;;0.40;0.30;;;2.50;99.90;;;;;;5090875;28;20548;-87
2021/11/12 01:24:41;;;;;;;0.80;0.80;;;2.50;99.90;;;;;;5090789;28;20460;-87
2021/11/12 01:27:09;;;;;;;0.40;0.40;;;2.50;99.90;;;;;;5090659;28;20479;-87
2021/11/12 01:29:38;;;;;;;0.60;0.60;;;2.50;99.90;;;;;;5091844;28;20454;-87
2021/11/12 01:32:19;;;;;;;0.73;0.73;;;2.50;99.90;;;;;;5090735;28;20451;-87
2021/11/12 01:34:47;;;;;;;1.23;1.23;;;2.40;99.90;;;;;;5090494;28;20484;-87
2021/11/12 01:37:15;;;;;;;0.30;0.30;;;2.40;99.90;;;;;;5090713;28;20847;-87
2021/11/12 01:39:42;;;;;;;0.40;0.40;;;2.40;99.90;;;;;;5090255;28;21009;-87
2021/11/12 01:42:10;;;;;;;1.03;1.03;;;2.40;99.90;;;;;;5090344;28;20454;-87
2021/11/12 01:44:44;;;;;;;0.87;0.87;;;2.40;99.90;;;;;;5090098;28;20547;-87
2021/11/12 01:47:18;;;;;;;0.40;0.30;;;2.40;99.90;;;;;;5084575;28;20510;-87
2021/11/12 01:49:46;;;;;;;0.50;0.50;;;2.40;99.90;;;;;;5076951;28;20437;-87
2021/11/12 01:52:16;;;;;;;0.40;0.40;;;2.40;99.90;;;;;;5076473;28;20437;-88
2021/11/12 01:54:53;;;;;;;1.00;0.40;;;2.40;99.90;;;;;;5076486;28;20551;-87
2021/11/12 01:57:34;;;;;;;0.30;0.30;;;2.30;99.90;;;;;;5077512;28;20433;-87
2021/11/12 02:00:02;;;;;;;0.87;0.87;;;2.40;99.90;;;;;;5076850;28;20887;-87
2021/11/12 02:02:29;;;;;;;0.70;0.60;;;2.40;99.90;;;;;;5076735;28;20561;-88
2021/11/12 02:04:56;;;;;;;0.30;0.30;;;2.40;99.90;;;;;;5076625;28;20468;-87
2021/11/12 02:07:23;;;;;;;0.50;0.50;;;2.30;99.90;;;;;;5076654;28;20488;-87
2021/11/12 02:09:50;;;;;;;0.30;0.30;;;2.30;99.90;;;;;;5077620;28;20532;-86
2021/11/12 02:12:21;;;;;;;0.67;0.60;;;2.30;99.90;;;;;;5080853;28;20940;-87
2021/11/12 02:14:51;;;;;;;0.50;0.50;;;2.30;99.90;;;;;;5081555;28;20495;-87
2021/11/12 02:17:20;;;;;;;0.53;0.53;;;2.30;99.90;;;;;;5081635;28;20449;-88
2021/11/12 02:19:51;;;;;;;2.40;0.77;;;2.30;99.90;;;;;;5076406;28;20452;-87
2021/11/12 02:22:21;;;;;;;0.30;0.30;;;2.30;99.90;;;;;;5076522;28;20441;-87
2021/11/12 02:24:51;;;;;;;0.30;0.30;;;2.30;99.90;;;;;;5076594;28;20461;-87
2021/11/12 02:27:20;;;;;;;0.67;0.67;;;2.30;99.90;;;;;;5075889;28;20511;-87
2021/11/12 02:29:50;;;;;;;0.60;0.60;;;2.30;99.90;;;;;;5076163;28;20945;-88
2021/11/12 02:32:22;;;;;;;0.50;0.50;;;2.30;99.90;;;;;;5076078;28;20872;-87
2021/11/12 02:34:51;;;;;;;0.30;0.30;;;2.20;99.90;;;;;;5075896;28;20465;-86
2021/11/12 02:37:21;;;;;;;0.70;0.70;;;2.10;99.90;;;;;;5076056;28;20429;-87
2021/11/12 02:39:49;;;;;;;0.63;0.63;;;2.10;99.90;;;;;;5076096;28;20446;-87
2021/11/12 02:42:16;;;;;;;0.60;0.60;;;2.10;99.90;;;;;;5078445;28;20810;-87
2021/11/12 02:44:44;;;;;;;0.40;0.40;;;2.00;99.90;;;;;;5078369;28;20468;-87
2021/11/12 02:47:13;;;;;;;2.73;0.70;;;2.10;99.90;;;;;;5079515;28;20483;-87
2021/11/12 02:49:40;;;;;;;0.63;0.50;;;2.00;99.90;;;;;;5075958;28;20447;-87
2021/11/12 02:52:09;;;;;;;0.60;0.60;;;1.90;99.90;;;;;;5075844;28;20464;-87
2021/11/12 02:54:37;;;;;;;1.07;1.07;;;1.90;99.90;;;;;;5075679;28;20468;-87
2021/11/12 02:57:05;;;;;;;0.70;0.70;;;1.90;99.90;;;;;;5075637;28;20471;-87
2021/11/12 02:59:32;;;;;;;3.60;1.17;;;1.80;99.90;;;;;;5074648;28;20441;-87
2021/11/12 03:02:03;;;;;;;0.90;0.90;;;1.80;99.90;;;;;;5076337;28;20441;-88
2021/11/12 03:04:31;;;;;;;0.53;0.53;;;1.80;99.90;;;;;;5075600;28;20473;-87
2021/11/12 03:06:59;;;;;;;0.63;0.50;;;1.80;99.90;;;;;;5075347;28;20480;-87
2021/11/12 03:09:27;;;;;;;0.90;0.90;;;1.80;99.90;;;;;;5075256;28;20441;-87
2021/11/12 03:11:57;;;;;;;0.80;0.80;;;1.80;99.90;;;;;;5075470;28;20448;-87
2021/11/12 03:14:24;;;;;;;0.40;0.40;;;1.80;99.90;;;;;;5075610;28;20511;-87
2021/11/12 03:16:51;;;;;;;0.60;0.60;;;1.80;99.90;;;;;;5076187;28;20476;-88
2021/11/12 03:19:19;;;;;;;0.40;0.40;;;1.80;99.90;;;;;;5075240;28;20460;-87
2021/11/12 03:21:47;;;;;;;3.07;0.70;;;1.80;99.90;;;;;;5075123;28;20864;-88
2021/11/12 03:24:19;;;;;;;0.63;0.63;;;1.90;99.90;;;;;;5075079;28;20897;-87
2021/11/12 03:26:52;;;;;;;0.87;0.50;;;1.90;99.90;;;;;;5074805;28;20551;-87
2021/11/12 04:02:26;;;;;;;0.53;0.53;;;1.80;99.90;;;;;;5074663;28;20451;-87
2021/11/12 04:05:09;;;;;;;0.37;0.37;;;1.80;99.90;;;;;;5074931;28;20477;-87
2021/11/12 04:17:05;;;;;;;0.40;0.40;;;1.90;99.90;;;;;;5074328;28;20477;-87
2021/11/12 04:18:48;;;;;;;0.63;0.63;;;1.90;99.90;;;;;;5073926;28;21027;-87
2021/11/12 04:41:02;;;;;;;0.60;0.60;;;1.90;99.90;;;;;;5074197;28;20421;-87
2021/11/12 05:03:10;;;;;;;0.30;0.30;;;1.80;99.90;;;;;;5073723;28;20432;-87
2021/11/12 05:11:35;;;;;;;0.40;0.40;;;1.80;99.90;;;;;;5073678;28;20439;-87
2021/11/12 05:44:37;;;;;;;0.40;0.40;;;1.80;99.90;;;;;;5076805;28;20452;-87
2021/11/12 05:49:42;;;;;;;0.77;0.77;;;1.70;99.90;;;;;;5076982;28;20554;-87
2021/11/12 05:50:04;;;;;;;0.60;0.60;;;1.70;99.90;;;;;;5076521;28;20528;-87
2021/11/12 05:55:15;;;;;;;0.83;0.70;;;1.80;99.90;;;;;;5076748;28;20424;-87
2021/11/12 05:57:43;;;;;;;0.30;0.30;;;1.70;99.90;;;;;;5076501;28;20440;-87
2021/11/12 06:00:13;;;;;;;0.40;0.40;;;1.70;99.90;;;;;;5076617;28;20445;-87
2021/11/12 06:02:40;;;;;;;1.40;0.60;;;1.60;99.90;;;;;;5076515;28;20528;-87
2021/11/12 06:05:07;;;;;;;0.30;0.30;;;1.60;99.90;;;;;;5076315;28;20429;-87
2021/11/12 06:07:34;;;;;;;0.40;0.40;;;1.60;99.90;;;;;;5076327;28;20516;-87
2021/11/12 06:10:00;;;;;;;0.80;0.80;;;1.60;99.90;;;;;;5076999;28;20452;-87
2021/11/12 06:12:27;;;;;;;1.37;1.27;;;1.60;99.90;;;;;;5076485;28;20458;-87
2021/11/12 06:14:56;;;;;;;1.00;1.00;;;1.70;99.90;;;;;;5076271;28;20465;-87
2021/11/12 06:17:22;;;;;;;0.70;0.70;;;1.70;99.90;;;;;;5076370;28;20437;-87
2021/11/12 06:19:49;;;;;;;2.03;0.67;;;1.70;99.90;;;;;;5076361;28;20448;-87
2021/11/12 06:22:16;;;;;;;1.43;1.43;;;1.60;99.90;;;;;;5076183;28;20408;-87
2021/11/12 06:24:43;;;;;;;0.70;0.70;;;1.70;99.90;;;;;;5076341;28;20473;-87
2021/11/12 06:27:10;;;;;;;1.07;0.70;;;1.70;99.90;;;;;;5075981;28;20841;-87
2021/11/12 06:29:37;;;;;;;0.30;0.30;;;1.70;99.90;;;;;;5076191;28;20441;-87
2021/11/12 06:32:06;;;;;;;0.50;0.50;;;1.60;99.90;;;;;;5076085;28;20824;-87
2021/11/12 06:34:33;;;;;;;0.47;0.47;;;1.60;99.90;;;;;;5075924;28;20485;-87
2021/11/12 06:36:59;;;;;;;0.70;0.70;;;1.60;99.90;;;;;;5074742;28;20473;-87
2021/11/12 06:39:26;;;;;;;0.40;0.40;;;1.60;99.90;;;;;;5075908;28;20471;-87
2021/11/12 06:41:56;;;;;;;0.30;0.30;;;1.60;99.90;;;;;;5075975;28;20444;-87
2021/11/12 06:49:59;;;;;;;0.53;0.53;;;1.70;99.90;;;;;;5075904;28;20420;-87
2021/11/12 06:52:28;;;;;;;0.70;0.70;;;1.70;99.90;;;;;;5075624;28;20449;-87
2021/11/12 06:54:57;;;;;;;0.87;0.87;;;1.70;99.90;;;;;;5075979;28;20472;-87
2021/11/12 06:57:24;;;;;;;0.30;0.30;;;1.80;99.90;;;;;;5075622;28;20496;-86
2021/11/12 06:59:51;;;;;;;0.73;0.53;;;1.80;99.90;;;;;;5075612;28;20460;-87
2021/11/12 07:02:25;;;;;;;0.30;0.30;;;1.90;99.90;;;;;;5074938;28;20445;-87
2021/11/12 07:04:52;;;;;;;1.50;1.40;;;1.90;99.90;;;;;;5075207;28;20831;-87
2021/11/12 07:07:19;;;;;;;0.50;0.50;;;1.90;99.90;;;;;;5075357;28;20476;-87
2021/11/12 07:09:47;;;;;;;0.50;0.50;;;1.90;99.90;;;;;;5075250;28;20449;-87
2021/11/12 07:12:14;;;;;;;0.70;0.70;;;1.90;99.90;;;;;;5075485;28;20452;-87
2021/11/12 07:14:41;;;;;;;1.23;0.90;;;2.00;99.90;;;;;;5075312;28;20461;-87
2021/11/12 07:17:08;;;;;;;0.30;0.30;;;2.00;99.90;;;;;;5075328;28;20437;-87
2021/11/12 07:19:37;;;;;;;0.43;0.43;;;2.00;99.90;;;;;;5075215;28;20538;-87
2021/11/12 07:22:04;;;;;;;0.50;0.50;;;2.10;99.90;;;;;;5075009;28;20441;-87
2021/11/12 07:24:31;;;;;;;0.43;0.43;;;2.20;99.90;;;;;;5075060;28;20479;-87
2021/11/12 07:26:59;;;;;;;0.47;0.47;;;2.20;99.90;;;;;;5074916;28;20483;-87
2021/11/12 07:29:27;;;;;;;1.13;1.13;;;2.30;99.90;;;;;;5075314;28;20452;-87
2021/11/12 07:31:54;;;;;;;0.50;0.50;;;2.40;99.90;;;;;;5079087;28;20460;-87
2021/11/12 07:34:24;;;;;;;0.40;0.30;;;2.50;99.90;;;;;;5078487;28;20518;-87
2021/11/12 07:36:54;;;;;;;0.80;0.80;;;2.50;99.90;;;;;;5077096;28;20976;-87
2021/11/12 07:39:25;;;;;;;0.40;0.40;;;2.50;99.90;;;;;;5075136;28;20476;-87
2021/11/12 07:42:15;;;;;;;0.57;0.57;;;2.50;99.90;;;;;;5074044;28;20487;-88
2021/11/12 07:44:54;;;;;;;0.30;0.30;;;2.50;99.90;;;;;;5071663;28;20460;-87
2021/11/12 07:47:24;;;;;;;0.60;0.60;;;2.60;99.90;;;;;;5071594;28;20959;-86
2021/11/12 07:49:54;;;;;;;0.40;0.40;;;2.60;99.90;;;;;;5073939;28;20921;-87
2021/11/12 07:52:25;;;;;;;1.07;0.60;;;2.70;99.90;;;;;;5071847;28;20449;-87
2021/11/12 07:54:52;;;;;;;0.30;0.30;;;2.70;99.90;;;;;;5074481;28;20475;-87
2021/11/12 07:57:19;;;;;;;0.50;0.50;;;2.80;99.90;;;;;;5074453;28;20441;-87
2021/11/12 07:59:46;;;;;;;0.80;0.80;;;2.90;99.90;;;;;;5074539;28;20429;-87
2021/11/12 08:02:15;;;;;;;0.70;0.70;;;3.00;99.90;;;;;;5074712;28;20440;-87
2021/11/12 08:04:42;;;;;;;1.77;1.67;;;3.10;99.90;;;;;;5073871;28;20619;-87
2021/11/12 08:07:10;;;;;;;0.40;0.40;;;3.20;99.90;;;;;;5073932;28;20473;-87
2021/11/12 08:09:41;;;;;;;0.40;0.40;;;3.20;99.90;;;;;;5074378;28;20479;-87
2021/11/12 08:12:10;;;;;;;0.70;0.70;;;3.30;99.90;;;;;;5074087;28;20429;-87
2021/11/12 08:14:40;;;;;;;0.30;0.30;;;3.30;99.90;;;;;;5074307;28;20465;-87
2021/11/12 08:17:19;;;;;;;0.80;0.80;;;3.40;99.90;;;;;;5073623;28;20884;-87
2021/11/12 08:19:48;;;;;;;0.30;0.30;;;3.50;99.90;;;;;;5073705;28;20778;-87
2021/11/12 08:22:19;;;;;;;0.60;0.60;;;3.60;99.90;;;;;;5071020;28;20498;-87
2021/11/12 08:24:52;;;;;;;0.57;0.40;;;3.80;99.90;;;;;;5073525;28;20551;-87
2021/11/12 08:30:21;;;;;;;0.30;0.30;;;4.10;99.90;;;;;;5053766;28;20441;-87
2021/11/12 08:32:55;;;;;;;1.07;1.07;;;4.40;99.90;;;;;;5071491;28;20441;-87
2021/11/12 08:35:34;;;;;;;0.53;0.53;;;4.60;99.90;;;;;;5070112;28;20549;-87
2021/11/12 08:38:09;;;;;;;0.90;0.90;;;4.80;99.90;;;;;;5073120;28;20439;-87
2021/11/12 08:40:54;;;;;;;0.83;0.83;;;5.30;99.90;;;;;;5073196;28;20436;-87
2021/11/12 08:43:26;;;;;;;1.27;1.27;;;6.00;99.90;;;;;;5053185;28;20462;-87
2021/11/12 08:46:06;;;;;;;0.40;0.40;;;6.70;99.90;;;;;;5052932;28;20889;-87
2021/11/12 08:48:41;;;;;;;0.60;0.60;;;7.30;99.90;;;;;;5053256;28;20470;-87
2021/11/12 08:51:12;;;;;;;0.30;0.30;;;8.10;99.90;;;;;;5053349;28;20433;-88
2021/11/12 08:53:40;;;;;;;2.43;1.30;;;8.90;99.90;;;;;;5052738;28;20470;-87
2021/11/12 08:56:12;;;;;;;0.60;0.60;;;9.90;99.90;;;;;;5052952;28;21041;-87
2021/11/12 08:58:41;;;;;;;1.00;1.00;;;10.80;99.90;;;;;;5056713;28;20444;-87
2021/11/12 09:01:08;;;;;;;1.33;1.23;;;11.80;99.90;;;;;;5057335;28;20807;-88
2021/11/12 09:03:36;;;;;;;2.27;2.17;;;12.60;99.90;;;;;;5057516;28;20539;-88
2021/11/12 09:06:03;;;;;;;1.50;1.33;;;13.40;99.90;;;;;;5057352;28;20453;-87
2021/11/12 09:08:30;;;;;;;1.30;1.20;;;14.00;99.90;;;;;;5056939;28;20488;-87
2021/11/12 09:10:57;;;;;;;9.70;2.07;;;14.50;99.90;;;;;;5057083;28;20455;-87
2021/11/12 09:13:28;;;;;;;3.73;2.80;;;14.90;99.90;;;;;;5056856;28;20512;-86
2021/11/12 09:15:59;;;;;;;5.77;2.70;;;15.10;99.90;;;;;;5056889;28;20434;-89
2021/11/12 09:18:26;;;;;;;3.67;2.40;;;15.10;99.90;;;;;;5057294;28;20433;-89
2021/11/12 09:20:53;;;;;;;5.93;2.80;;;15.00;99.70;;;;;;5057190;28;20461;-89
2021/11/12 09:23:21;;;;;;;3.03;1.90;;;15.00;99.10;;;;;;5057694;28;20835;-89
2021/11/12 09:25:47;;;;;;;2.87;2.23;;;14.90;99.30;;;;;;5063220;28;20452;-89
2021/11/12 09:28:15;;;;;;;4.30;2.07;;;14.70;98.40;;;;;;5076856;28;20839;-89
2021/11/12 09:30:44;;;;;;;7.30;2.73;;;14.50;98.70;;;;;;5076564;28;20432;-89
2021/11/12 09:33:11;;;;;;;8.80;3.37;;;14.30;98.60;;;;;;5076995;28;20479;-89
2021/11/12 09:35:38;;;;;;;2.67;1.90;;;14.30;99.20;;;;;;5076633;28;20485;-89
2021/11/12 09:38:05;;;;;;;9.57;2.90;;;14.60;99.40;;;;;;5077439;28;20448;-89
2021/11/12 09:40:33;;;;;;;6.00;3.50;;;15.10;98.70;;;;;;5077277;28;20448;-88
2021/11/12 09:43:00;;;;;;;3.60;2.23;;;15.70;97.50;;;;;;5077257;28;20444;-89
2021/11/12 09:45:27;;;;;;;5.10;2.70;;;16.20;95.80;;;;;;5077385;28;20448;-89
2021/11/12 09:47:57;;;;;;;5.77;2.30;;;17.00;94.50;;;;;;5077137;28;20477;-89
2021/11/12 09:50:27;;;;;;;7.53;2.20;;;17.50;93.40;;;;;;5077301;28;20441;-89
2021/11/12 09:52:55;;;;;;;2.97;2.70;;;17.70;91.90;;;;;;5077177;28;20437;-89
2021/11/12 09:55:23;;;;;;;2.00;1.90;;;17.60;91.70;;;;;;5077209;28;20471;-88
2021/11/12 09:57:51;;;;;;;3.67;3.23;;;17.10;91.20;;;;;;5077056;28;20430;-89
2021/11/12 10:00:20;;;;;;;3.60;1.80;;;16.20;92.40;;;;;;5077117;28;20414;-89
2021/11/12 10:02:49;;;;;;;4.90;2.90;;;15.20;93.90;;;;;;5076937;28;20473;-89
2021/11/12 10:05:32;;;;;;;9.50;3.10;;;14.20;95.10;;;;;;5076645;28;20498;-89
2021/11/12 10:07:59;;;;;;;3.50;2.27;;;13.30;97.40;;;;;;5076410;28;20530;-89
2021/11/12 10:10:27;;;;;;;3.13;2.10;;;12.70;99.30;;;;;;5076629;28;20912;-89
2021/11/12 10:12:55;;;;;;;4.10;2.53;;;12.30;99.90;;;;;;5076694;28;20433;-89
2021/11/12 10:15:29;;;;;;;4.33;2.63;;;12.20;99.90;;;;;;5076250;28;20912;-88
2021/11/12 10:18:06;;;;;;;2.90;2.70;;;12.10;99.90;;;;;;5076831;28;20476;-88
2021/11/12 10:20:35;;;;;;;3.83;1.50;;;12.30;99.90;;;;;;5076432;28;20480;-89
2021/11/12 10:23:14;;;;;;;1.73;1.40;;;12.30;99.90;;;;;;5076602;28;20468;-89
2021/11/12 10:25:55;;;;;;;4.57;2.93;;;12.20;99.90;;;;;;5076686;28;20511;-89
2021/11/12 10:28:37;;;;;;;10.93;2.07;;;11.90;99.90;;;;;;5075818;28;21033;-89
2021/11/12 10:31:17;;;;;;;3.53;1.50;;;11.70;99.90;;;;;;5070920;28;20916;-89
2021/11/12 10:33:44;;;;;;;2.97;1.67;;;11.60;99.90;;;;;;5073212;28;20465;-88
2021/11/12 10:36:13;;;;;;;4.50;3.10;;;11.30;99.90;;;;;;5075434;28;20476;-88
2021/11/12 10:38:42;;;;;;;2.30;1.80;;;11.00;99.90;;;;;;5075356;28;20461;-88
2021/11/12 10:41:21;;;;;;;2.70;1.40;;;10.80;99.90;;;;;;5077429;28;20947;-89
2021/11/12 10:43:50;;;;;;;3.53;2.10;;;10.60;99.90;;;;;;5073148;28;20460;-89
2021/11/12 10:46:18;;;;;;;2.33;2.23;;;10.50;99.90;;;;;;5076489;28;20426;-89
2021/11/12 10:48:45;;;;;;;1.73;1.30;;;10.50;99.90;;;;;;5077340;28;21059;-89
2021/11/12 10:51:22;;;;;;;1.77;1.10;;;10.40;99.90;;;;;;5076656;28;20433;-89
2021/11/12 10:53:51;;;;;;;2.43;2.23;;;10.50;99.90;;;;;;5083408;28;20473;-89
2021/11/12 10:56:19;;;;;;;1.97;1.73;;;10.50;99.90;;;;;;5088787;28;20434;-89
2021/11/12 10:59:00;;;;;;;6.03;2.17;;;10.50;99.90;;;;;;5078502;28;20436;-89
2021/11/12 11:01:36;;;;;;;3.37;1.90;;;10.50;99.90;;;;;;5074027;28;20436;-89
2021/11/12 11:04:22;;;;;;;2.80;2.07;;;10.50;99.90;;;;;;5072687;28;20825;-89
2021/11/12 11:06:51;;;;;;;2.80;1.20;;;10.70;99.90;;;;;;5073802;28;20813;-90
2021/11/12 11:09:20;;;;;;;0.70;0.70;;;10.70;99.90;;;;;;5076265;28;20456;-89
2021/11/12 11:11:49;;;;;;;5.43;2.27;;;10.70;99.90;;;;;;5076162;28;20674;-89
2021/11/12 11:14:29;;;;;;;2.50;1.60;;;10.80;99.90;;;;;;5076204;28;20476;-89
2021/11/12 11:16:57;;;;;;;4.00;2.60;;;10.80;99.90;;;;;;5076405;28;20437;-89
2021/11/12 11:19:35;;;;;;;2.10;0.90;;;10.80;99.90;;;;;;5077317;28;20434;-90
2021/11/12 11:22:10;;;;;;;1.37;1.27;;;10.80;99.90;;;;;;5074132;28;20440;-90
2021/11/12 11:24:38;;;;;;;1.70;1.30;;;10.80;99.90;;;;;;5075073;28;20971;-89
2021/11/12 11:27:05;;;;;;;0.87;0.87;;;10.80;99.90;;;;;;5075193;28;20444;-90
2021/11/12 11:29:32;;;;;;;1.80;1.13;;;10.80;99.90;;;;;;5075029;28;20461;-89
2021/11/12 11:31:59;;;;;;;1.20;1.20;;;10.90;99.90;;;;;;5074793;28;20456;-90
2021/11/12 11:34:28;;;;;;;3.67;1.50;;;10.80;99.90;;;;;;5076262;28;20453;-89
2021/11/12 11:36:59;;;;;;;4.10;1.97;;;10.80;99.90;;;;;;5074468;28;20475;-87
2021/11/12 11:39:29;;;;;;;2.30;0.90;;;10.70;99.90;;;;;;5072853;28;20433;-87
2021/11/12 11:41:57;;;;;;;3.17;1.83;;;10.70;99.90;;;;;;5074725;28;20804;-88
2021/11/12 11:44:24;;;;;;;3.80;1.40;;;10.60;99.90;;;;;;5072470;28;20910;-92
2021/11/12 11:46:52;;;;;;;1.47;1.37;;;10.60;99.90;;;;;;5076506;28;20442;-91
2021/11/12 11:49:22;;;;;;;1.00;0.93;;;10.70;99.90;;;;;;5074947;28;20591;-88
2021/11/12 11:51:52;;;;;;;0.53;0.53;;;10.60;99.90;;;;;;5075163;28;20437;-91
2021/11/12 11:54:21;;;;;;;4.87;1.47;;;10.50;99.90;;;;;;5076093;28;20464;-92
2021/11/12 11:56:51;;;;;;;1.67;1.57;;;10.40;99.90;;;;;;5074682;28;20445;-91
2021/11/12 11:59:19;;;;;;;1.63;1.53;;;10.40;99.90;;;;;;5074545;28;20433;-91
2021/11/12 12:01:48;;;;;;;1.27;0.90;;;10.20;99.90;;;;;;5074953;28;20527;-91
2021/11/12 12:04:37;;;;;;;0.97;0.80;;;10.30;99.90;;;;;;5075920;28;20841;-90
2021/11/12 12:07:29;;;;;;;1.53;1.17;;;10.20;99.90;;;;;;5072826;28;20426;-91
2021/11/12 12:10:00;;;;;;;2.00;1.27;;;10.30;99.90;;;;;;5080856;28;20493;-90
2021/11/12 12:12:41;;;;;;;1.17;1.03;;;10.20;99.90;;;;;;5082099;28;20448;-90
2021/11/12 12:15:47;;;;;;;1.13;0.80;;;10.00;99.90;;;;;;5090672;28;20433;-90
2021/11/12 12:18:30;;;;;;;1.10;0.87;;;10.10;99.90;;;;;;5071684;28;20463;-90
2021/11/12 12:21:23;;;;;;;1.80;1.10;;;10.10;99.90;;;;;;5074511;28;20441;-90
2021/11/12 12:32:49;;;;;;;2.30;1.50;;;10.00;99.90;;;;;;5075836;28;20939;-90
2021/11/12 12:35:26;;;;;;;3.60;0.70;;;9.90;99.90;;;;;;5082210;28;20545;-91
2021/11/12 13:23:08;;;;;;;1.33;1.10;;;10.30;99.90;;;;;;5075860;28;20514;-91
2021/11/12 13:25:37;;;;;;;1.27;1.03;;;10.40;99.90;;;;;;5090043;28;20430;-91
2021/11/12 13:28:18;;;;;;;1.20;0.70;;;10.40;99.90;;;;;;5090691;28;20435;-91
2021/11/12 13:30:48;;;;;;;0.77;0.70;;;10.40;99.90;;;;;;5078099;28;20436;-91
2021/11/12 13:33:30;;;;;;;3.13;1.63;;;10.50;99.90;;;;;;5074784;28;20475;-91
2021/11/12 13:36:02;;;;;;;0.73;0.73;;;10.50;99.90;;;;;;5074131;28;20479;-90
2021/11/12 13:38:37;;;;;;;0.70;0.70;;;10.60;99.90;;;;;;5074833;28;20438;-91
2021/11/12 13:41:07;;;;;;;1.93;1.63;;;10.60;99.90;;;;;;5074903;28;20833;-92
2021/11/12 13:43:37;;;;;;;1.00;0.80;;;10.60;99.90;;;;;;5076005;28;20473;-91
2021/11/12 13:46:07;;;;;;;1.73;1.60;;;10.50;99.90;;;;;;5078222;28;20440;-90
2021/11/12 13:48:51;;;;;;;2.40;1.27;;;10.40;99.90;;;;;;5077780;28;20473;-91
2021/11/12 13:51:25;;;;;;;0.90;0.70;;;10.30;99.90;;;;;;5078098;28;20455;-91
2021/11/12 13:53:53;;;;;;;1.97;0.73;;;10.30;99.90;;;;;;5077171;28;20467;-83
2021/11/12 13:56:20;;;;;;;0.80;0.80;;;10.30;99.90;;;;;;5078434;28;20817;-91
2021/11/12 13:58:47;;;;;;;5.10;1.80;;;10.20;99.90;;;;;;5078010;28;20433;-91
2021/11/12 14:01:23;;;;;;;1.93;1.43;;;10.30;99.90;;;;;;5077637;28;20445;-91
2021/11/12 14:03:51;;;;;;;1.10;0.80;;;10.30;99.90;;;;;;5078091;28;20472;-92
2021/11/12 14:06:20;;;;;;;0.57;0.57;;;10.30;99.90;;;;;;5079003;28;20948;-91
2021/11/12 14:08:49;;;;;;;0.77;0.77;;;10.30;99.90;;;;;;5076695;28;20490;-91
2021/11/12 14:11:22;;;;;;;1.70;0.80;;;10.20;99.90;;;;;;5077018;28;20448;-91
2021/11/12 14:13:51;;;;;;;0.77;0.77;;;10.10;99.90;;;;;;5077150;28;20907;-91
2021/11/12 14:16:28;;;;;;;3.63;1.30;;;10.10;99.90;;;;;;5076916;28;20448;-91
2021/11/12 14:21:46;;;;;;;1.03;0.93;;;10.00;99.90;;;;;;5043597;28;20550;-91
2021/11/12 14:24:44;;;;;;;0.80;0.80;;;9.90;99.90;;;;;;5077102;28;20483;-91
2021/11/12 14:27:23;;;;;;;1.63;0.60;;;9.80;99.90;;;;;;5077057;28;20441;-91
2021/11/12 14:30:08;;;;;;;2.70;0.60;;;9.70;99.90;;;;;;5076892;28;20469;-91
2021/11/12 14:35:32;;;;;;;1.20;1.10;;;9.60;99.90;;;;;;5051265;28;20462;-91
2021/11/12 14:43:45;;;;;;;0.80;0.70;;;9.40;99.90;;;;;;5076529;28;20482;-91
2021/11/12 14:46:18;;;;;;;1.40;1.20;;;9.20;99.90;;;;;;5076465;28;20924;-91
2021/11/12 14:48:57;;;;;;;1.47;1.00;;;9.00;99.90;;;;;;5076594;28;20429;-91
2021/11/12 14:51:40;;;;;;;1.33;1.00;;;8.80;99.90;;;;;;5076513;28;20540;-91
2021/11/12 14:54:10;;;;;;;1.80;1.67;;;8.50;99.90;;;;;;5076504;28;20504;-92
2021/11/12 14:56:37;;;;;;;2.53;1.70;;;8.30;99.90;;;;;;5076726;28;20437;-92
2021/11/12 14:59:06;;;;;;;2.20;1.17;;;8.10;99.90;;;;;;5075924;28;20455;-90
2021/11/12 15:01:35;;;;;;;0.80;0.80;;;7.80;99.90;;;;;;5076304;28;20447;-91
2021/11/12 15:04:02;;;;;;;1.57;1.20;;;7.60;99.90;;;;;;5076260;28;20576;-91
2021/11/12 15:06:32;;;;;;;2.70;1.40;;;7.40;99.90;;;;;;5076032;28;20433;-92
2021/11/12 15:09:03;;;;;;;0.40;0.40;;;7.30;99.90;;;;;;5075802;28;20464;-92
2021/11/12 15:11:33;;;;;;;1.70;1.03;;;7.10;99.90;;;;;;5077164;28;20441;-92
2021/11/12 15:14:07;;;;;;;0.40;0.40;;;6.90;99.90;;;;;;5078299;28;20492;-91
2021/11/12 15:16:36;;;;;;;0.80;0.80;;;6.80;99.90;;;;;;5076072;28;20510;-92
2021/11/12 15:19:05;;;;;;;0.87;0.87;;;6.70;99.90;;;;;;5076227;28;20531;-92
2021/11/12 15:21:35;;;;;;;0.90;0.90;;;6.60;99.90;;;;;;5075641;28;20451;-91
2021/11/12 15:24:08;;;;;;;0.50;0.40;;;6.50;99.90;;;;;;5075231;28;20484;-86
2021/11/12 15:26:48;;;;;;;0.80;0.80;;;6.30;99.90;;;;;;5075859;28;20429;-91
2021/11/12 15:29:18;;;;;;;0.60;0.60;;;6.20;99.90;;;;;;5075905;28;20468;-93
2021/11/12 15:32:01;;;;;;;0.60;0.57;;;6.20;99.90;;;;;;5075559;28;20459;-91
2021/11/12 15:34:30;;;;;;;1.03;0.67;;;6.20;99.90;;;;;;5075828;28;20464;-93
2021/11/12 15:37:01;;;;;;;0.50;0.30;;;6.10;99.90;;;;;;5075245;28;20477;-92
2021/11/12 15:39:36;;;;;;;0.60;0.60;;;6.10;99.90;;;;;;5075413;28;20794;-92
2021/11/12 15:42:24;;;;;;;0.70;0.70;;;6.00;99.90;;;;;;5075325;28;20522;-92
2021/11/12 15:44:53;;;;;;;0.80;0.60;;;5.90;99.90;;;;;;5075227;28;20981;-92
2021/11/12 15:47:25;;;;;;;1.37;1.27;;;5.80;99.90;;;;;;5075352;28;20838;-92
2021/11/12 15:49:58;;;;;;;0.70;0.70;;;5.70;99.90;;;;;;5075174;28;20472;-92
2021/11/12 15:52:28;;;;;;;1.00;1.00;;;5.70;99.90;;;;;;5074950;28;20451;-92
2021/11/12 15:55:01;;;;;;;1.33;0.40;;;5.60;99.90;;;;;;5074866;28;20988;-92
2021/11/12 16:00:23;;;;;;;0.60;0.60;;;5.50;99.90;;;;;;5061717;28;20434;-92
2021/11/12 16:05:50;;;;;;;0.40;0.40;;;5.40;99.90;;;;;;5075079;28;20464;-89
2021/11/12 16:08:27;;;;;;;0.43;0.43;;;5.40;99.90;;;;;;5087715;28;20441;-89
2021/11/12 16:13:51;;;;;;;0.40;0.40;;;5.20;99.90;;;;;;5075250;28;20452;-89
2021/11/12 16:16:35;;;;;;;1.17;1.07;;;5.20;99.90;;;;;;5074909;28;20434;-89
2021/11/12 16:19:07;;;;;;;0.40;0.40;;;5.20;99.90;;;;;;5075075;28;20429;-89
2021/11/12 16:21:45;;;;;;;1.13;0.87;;;5.10;99.90;;;;;;5074966;28;20433;-86
2021/11/12 16:26:56;;;;;;;1.10;1.10;;;5.00;99.90;;;;;;5075467;28;20413;-91
2021/11/12 16:29:36;;;;;;;0.30;0.30;;;4.90;99.90;;;;;;5074833;28;20472;-92
2021/11/12 16:32:06;;;;;;;0.60;0.60;;;4.90;99.90;;;;;;5074746;28;20444;-93
2021/11/12 16:34:37;;;;;;;0.90;0.90;;;4.80;99.90;;;;;;5074979;28;20948;-93
2021/11/12 16:37:06;;;;;;;0.40;0.40;;;4.80;99.90;;;;;;5074528;28;20484;-92
2021/11/12 16:39:36;;;;;;;6.30;1.30;;;4.80;99.90;;;;;;5075529;28;20897;-94
2021/11/12 16:42:14;;;;;;;0.50;0.50;;;4.80;99.90;;;;;;5091944;28;20436;-91
2021/11/12 16:44:49;;;;;;;1.77;1.67;;;4.70;99.90;;;;;;5093464;28;20464;-91
2021/11/12 16:47:32;;;;;;;0.43;0.43;;;4.70;99.90;;;;;;5089303;28;20441;-93
2021/11/12 16:52:58;;;;;;;0.67;0.67;;;4.60;99.90;;;;;;5069298;28;20470;-93
2021/11/12 16:55:44;;;;;;;0.67;0.67;;;4.60;99.90;;;;;;5075064;28;20429;-92